Time;durP1;ratioP1;P1;durP2;ratioP2;P2;SDS_P1;SDS_P2;PMS_P1;PMS_P2;Temp;Humidity;BMP_temperature;BMP_pressure;BME280_temperature;BME280_humidity;BME280_pressure;Samples;Min_cycle;Max_cycle;Signal;HPM_P1;HPM_P2
2022/09/17 00:01:57;;;;;;;70.85;49.65;;;20.60;64.30;;;;;;4969973;28;90115;-59
2022/09/17 00:04:23;;;;;;;69.90;49.85;;;20.60;64.30;;;;;;4966690;28;91399;-59
2022/09/17 00:06:49;;;;;;;69.30;49.83;;;20.60;64.50;;;;;;4964981;28;89899;-58
2022/09/17 00:09:14;;;;;;;69.95;50.05;;;20.60;64.50;;;;;;4972757;28;89788;-59
2022/09/17 00:11:41;;;;;;;68.82;49.90;;;20.60;64.50;;;;;;4963153;28;91964;-59
2022/09/17 00:14:12;;;;;;;70.15;49.92;;;20.50;64.50;;;;;;4969063;28;89829;-59
2022/09/17 00:16:45;;;;;;;68.28;49.47;;;20.60;64.50;;;;;;4975418;28;91003;-59
2022/09/17 00:19:22;;;;;;;68.95;49.72;;;20.60;64.50;;;;;;4962978;28;91119;-59
2022/09/17 00:21:48;;;;;;;69.20;49.50;;;20.50;64.50;;;;;;4965647;28;89674;-59
2022/09/17 00:24:16;;;;;;;69.25;50.13;;;20.50;64.50;;;;;;4962272;28;89873;-59
2022/09/17 00:26:42;;;;;;;69.38;50.13;;;20.60;64.60;;;;;;4961106;28;91474;-59
2022/09/17 00:29:09;;;;;;;69.07;50.03;;;20.60;64.20;;;;;;4966912;28;91069;-59
2022/09/17 00:31:35;;;;;;;69.13;49.80;;;20.70;64.30;;;;;;4967225;28;90811;-59
2022/09/17 00:34:02;;;;;;;69.45;49.78;;;20.60;64.10;;;;;;4965652;28;89773;-58
2022/09/17 00:36:28;;;;;;;70.60;50.15;;;20.60;64.10;;;;;;4967666;28;91752;-60
2022/09/17 00:38:58;;;;;;;71.30;50.20;;;20.60;64.10;;;;;;4972256;28;92491;-59
2022/09/17 00:41:27;;;;;;;70.90;49.90;;;20.60;64.30;;;;;;4965882;28;89953;-60
2022/09/17 00:43:59;;;;;;;69.60;49.97;;;20.60;64.50;;;;;;4969403;28;90023;-59
2022/09/17 00:46:42;;;;;;;69.25;50.15;;;20.60;64.30;;;;;;4966721;28;89664;-60
2022/09/17 00:49:15;;;;;;;69.45;49.80;;;20.50;64.30;;;;;;4962136;28;90223;-60
2022/09/17 00:51:56;;;;;;;69.93;49.97;;;20.50;64.20;;;;;;4953863;28;90161;-60
2022/09/17 00:54:22;;;;;;;68.75;49.92;;;20.50;64.40;;;;;;4967813;28;92360;-59
2022/09/17 00:56:49;;;;;;;70.82;50.50;;;20.50;64.20;;;;;;4964985;28;90048;-59
2022/09/17 00:59:15;;;;;;;70.07;50.40;;;20.40;64.10;;;;;;4967250;28;92925;-59
2022/09/17 01:01:40;;;;;;;70.75;49.95;;;20.50;64.30;;;;;;4965738;28;92066;-59
2022/09/17 01:04:14;;;;;;;69.53;50.05;;;20.50;64.20;;;;;;4965290;28;91276;-58
2022/09/17 01:06:51;;;;;;;69.57;49.75;;;20.50;64.10;;;;;;4967307;28;89716;-60
2022/09/17 01:09:49;;;;;;;69.13;49.95;;;20.50;63.70;;;;;;4974901;28;91039;-60
2022/09/17 01:12:36;;;;;;;70.20;49.75;;;20.50;64.10;;;;;;4968613;28;89889;-59
2022/09/17 01:15:26;;;;;;;71.28;49.95;;;20.50;63.60;;;;;;4971005;28;90435;-60
2022/09/17 01:18:07;;;;;;;71.13;50.25;;;20.50;64.20;;;;;;4974102;28;90253;-59
2022/09/17 01:21:03;;;;;;;69.70;50.25;;;20.50;64.10;;;;;;4959588;28;91801;-58
2022/09/17 01:23:41;;;;;;;69.65;49.85;;;20.50;64.10;;;;;;4963843;28;90788;-59
2022/09/17 01:26:28;;;;;;;69.45;50.15;;;20.40;64.10;;;;;;4961383;28;91804;-58
2022/09/17 01:29:09;;;;;;;69.82;50.13;;;20.40;64.20;;;;;;4961832;28;89998;-59
2022/09/17 01:31:50;;;;;;;68.53;49.80;;;20.40;64.10;;;;;;4966915;28;93051;-59
2022/09/17 01:34:46;;;;;;;70.95;49.90;;;20.40;64.10;;;;;;4960399;28;90148;-58
2022/09/17 01:37:22;;;;;;;69.03;49.90;;;20.40;64.10;;;;;;4964423;28;91458;-59
2022/09/17 01:40:00;;;;;;;69.45;49.53;;;20.40;64.30;;;;;;4964413;28;89197;-59
2022/09/17 01:42:39;;;;;;;70.90;49.80;;;20.50;64.10;;;;;;4968226;28;90240;-59
2022/09/17 01:45:11;;;;;;;69.93;49.95;;;20.40;64.10;;;;;;4969158;28;90533;-60
2022/09/17 01:48:01;;;;;;;69.65;49.83;;;20.40;64.20;;;;;;4965368;28;92210;-58
2022/09/17 01:50:35;;;;;;;69.55;49.88;;;20.40;64.10;;;;;;4966839;28;90020;-58
2022/09/17 01:53:02;;;;;;;68.93;49.63;;;20.40;64.10;;;;;;4962974;28;89982;-58
2022/09/17 01:55:34;;;;;;;70.30;50.13;;;20.40;64.10;;;;;;4966555;28;91040;-59
2022/09/17 01:58:11;;;;;;;69.68;49.90;;;20.40;64.10;;;;;;4967840;28;90647;-59
2022/09/17 02:00:41;;;;;;;68.43;49.72;;;20.40;64.10;;;;;;4968724;28;92202;-58
2022/09/17 02:03:15;;;;;;;68.97;49.90;;;20.40;64.10;;;;;;4964843;28;89858;-58
2022/09/17 02:06:00;;;;;;;69.35;49.75;;;20.40;64.10;;;;;;4967809;28;95403;-59
2022/09/17 02:08:34;;;;;;;69.93;49.97;;;20.40;64.00;;;;;;4964258;28;90172;-59
2022/09/17 02:11:08;;;;;;;69.07;49.83;;;20.40;64.10;;;;;;4972339;28;90440;-59
2022/09/17 02:13:43;;;;;;;69.00;49.80;;;20.40;64.10;;;;;;4968359;28;91658;-59
2022/09/17 02:16:28;;;;;;;69.88;49.88;;;20.40;63.90;;;;;;4971797;28;91860;-59
2022/09/17 02:19:05;;;;;;;69.38;49.75;;;20.40;64.00;;;;;;4967394;28;89994;-60
2022/09/17 02:21:39;;;;;;;69.53;49.80;;;20.40;64.10;;;;;;4961392;28;92251;-59
2022/09/17 02:24:33;;;;;;;69.95;50.00;;;20.30;64.30;;;;;;4958070;28;90379;-59
2022/09/17 02:27:31;;;;;;;70.45;49.95;;;20.30;64.20;;;;;;4961598;28;90608;-60
2022/09/17 02:29:57;;;;;;;69.95;49.83;;;20.30;64.20;;;;;;4951286;28;91824;-58
2022/09/17 02:32:23;;;;;;;71.88;50.28;;;20.30;64.30;;;;;;4959858;28;94670;-58
2022/09/17 02:34:49;;;;;;;69.57;49.67;;;20.30;64.20;;;;;;4958024;28;93159;-60
2022/09/17 02:37:15;;;;;;;70.95;49.90;;;20.30;64.30;;;;;;4974496;28;92682;-58
2022/09/17 02:39:41;;;;;;;69.68;50.03;;;20.20;64.20;;;;;;4960899;28;94084;-58
2022/09/17 02:42:52;;;;;;;69.93;49.85;;;20.20;64.30;;;;;;4965471;28;91242;-58
2022/09/17 02:45:20;;;;;;;69.55;49.88;;;20.20;64.20;;;;;;4962980;28;92811;-58
2022/09/17 02:48:20;;;;;;;70.93;50.10;;;20.20;64.40;;;;;;4959622;28;90998;-58
2022/09/17 02:51:08;;;;;;;69.38;49.80;;;20.20;64.30;;;;;;4961303;28;93265;-58
2022/09/17 02:53:46;;;;;;;68.78;49.75;;;20.20;64.30;;;;;;4954101;28;91662;-58
2022/09/17 02:56:39;;;;;;;71.32;50.15;;;20.20;64.40;;;;;;4962028;28;90291;-58
2022/09/17 02:59:31;;;;;;;69.47;50.15;;;20.20;64.10;;;;;;4955668;28;90567;-58
2022/09/17 03:02:06;;;;;;;71.95;50.35;;;20.20;64.20;;;;;;4962036;28;94170;-58
2022/09/17 03:04:34;;;;;;;70.68;50.20;;;20.20;64.20;;;;;;4957428;28;90205;-58
2022/09/17 03:07:07;;;;;;;69.78;50.10;;;20.20;64.30;;;;;;4954764;28;92630;-58
2022/09/17 03:09:33;;;;;;;70.25;50.15;;;20.20;64.10;;;;;;4955379;28;90348;-59
2022/09/17 03:12:00;;;;;;;69.07;49.80;;;20.10;64.50;;;;;;4966762;28;90840;-58
2022/09/17 03:14:25;;;;;;;68.78;50.03;;;20.20;64.30;;;;;;4962641;28;90261;-59
2022/09/17 03:16:51;;;;;;;70.90;50.03;;;20.20;64.10;;;;;;4964819;28;90815;-59
2022/09/17 03:19:17;;;;;;;71.30;50.08;;;20.10;64.10;;;;;;4963266;28;91996;-58
2022/09/17 03:21:42;;;;;;;70.80;50.17;;;20.20;64.30;;;;;;4961402;28;90276;-59
2022/09/17 03:24:10;;;;;;;70.80;50.25;;;20.20;64.00;;;;;;4959847;28;90194;-58
2022/09/17 03:26:36;;;;;;;69.82;49.95;;;20.20;63.90;;;;;;4962811;28;95173;-58
2022/09/17 03:29:02;;;;;;;73.28;50.13;;;20.20;64.00;;;;;;4965367;28;91703;-58
2022/09/17 03:31:28;;;;;;;69.55;49.90;;;20.20;63.90;;;;;;4960529;28;91167;-59
2022/09/17 03:33:54;;;;;;;72.43;50.10;;;20.20;63.80;;;;;;4966259;28;89669;-58
2022/09/17 03:36:19;;;;;;;73.68;50.30;;;20.10;63.90;;;;;;4963382;28;90077;-58
2022/09/17 03:38:45;;;;;;;71.45;50.08;;;20.10;63.90;;;;;;4967624;28;90069;-58
2022/09/17 03:41:11;;;;;;;70.38;50.15;;;20.10;64.00;;;;;;4962295;28;94954;-58
2022/09/17 03:43:40;;;;;;;71.35;50.00;;;20.10;64.00;;;;;;4969570;28;90303;-58
2022/09/17 03:46:05;;;;;;;71.35;50.00;;;20.10;63.80;;;;;;4962742;28;90081;-58
2022/09/17 03:48:34;;;;;;;71.25;49.85;;;20.10;63.70;;;;;;4969562;28;90463;-60
2022/09/17 03:51:00;;;;;;;71.90;50.17;;;20.10;63.80;;;;;;4960310;28;90391;-60
2022/09/17 03:53:25;;;;;;;70.35;49.72;;;20.00;63.70;;;;;;4967728;28;90718;-60
2022/09/17 03:55:51;;;;;;;70.72;50.17;;;20.10;63.60;;;;;;4960909;28;91605;-59
2022/09/17 03:58:17;;;;;;;72.28;50.25;;;20.10;63.60;;;;;;4967189;28;91421;-58
2022/09/17 04:00:43;;;;;;;71.50;50.35;;;20.00;63.40;;;;;;4962980;28;90624;-58
2022/09/17 04:03:09;;;;;;;71.00;50.45;;;20.00;63.60;;;;;;4961209;28;91887;-58
2022/09/17 04:05:34;;;;;;;71.65;49.97;;;20.00;63.50;;;;;;4956076;28;93080;-59
2022/09/17 04:08:00;;;;;;;70.68;50.13;;;20.00;63.80;;;;;;4974002;28;90363;-59
2022/09/17 04:10:26;;;;;;;70.97;49.92;;;20.00;63.80;;;;;;4969014;28;90288;-58
2022/09/17 04:12:51;;;;;;;71.55;50.08;;;20.00;64.00;;;;;;4971945;28;89334;-59
2022/09/17 04:15:17;;;;;;;71.30;50.25;;;20.00;63.80;;;;;;4966529;28;91118;-58
2022/09/17 04:17:43;;;;;;;72.43;50.20;;;20.00;63.80;;;;;;4960870;28;90038;-58
2022/09/17 04:20:09;;;;;;;70.72;49.80;;;20.00;63.70;;;;;;4963691;28;91591;-58
2022/09/17 04:22:34;;;;;;;71.70;49.97;;;20.00;63.80;;;;;;4964345;28;89796;-58
2022/09/17 04:25:00;;;;;;;71.72;49.92;;;20.00;63.80;;;;;;4965768;28;90231;-58
2022/09/17 04:27:25;;;;;;;71.05;50.08;;;20.00;63.40;;;;;;4963119;28;91077;-60
2022/09/17 04:29:51;;;;;;;69.38;49.78;;;20.00;63.60;;;;;;4965886;28;91421;-60
2022/09/17 04:32:17;;;;;;;69.53;50.13;;;20.00;63.70;;;;;;4963893;28;92830;-58
2022/09/17 04:34:42;;;;;;;69.53;50.13;;;19.90;63.90;;;;;;4965044;28;90966;-58
2022/09/17 04:37:08;;;;;;;69.18;49.90;;;20.00;63.90;;;;;;4965773;28;90779;-58
2022/09/17 04:39:34;;;;;;;70.57;50.08;;;19.90;63.90;;;;;;4963687;28;90979;-58
2022/09/17 04:42:00;;;;;;;71.15;50.03;;;20.00;63.90;;;;;;4963704;28;96652;-57
2022/09/17 04:44:25;;;;;;;69.00;49.88;;;20.00;63.70;;;;;;4970592;28;91273;-58
2022/09/17 04:46:51;;;;;;;72.40;50.47;;;20.00;63.80;;;;;;4959258;28;90307;-59
2022/09/17 04:49:17;;;;;;;69.63;49.97;;;20.00;63.70;;;;;;4958982;28;91653;-60
2022/09/17 04:51:42;;;;;;;70.38;50.03;;;20.00;63.80;;;;;;4963162;28;90479;-58
2022/09/17 04:54:08;;;;;;;69.93;49.60;;;20.00;63.60;;;;;;4964979;28;93177;-58
2022/09/17 04:56:34;;;;;;;73.28;50.03;;;20.00;63.60;;;;;;4959753;28;89921;-58
2022/09/17 04:58:59;;;;;;;70.65;50.22;;;20.00;63.60;;;;;;4968676;28;90829;-58
2022/09/17 05:01:25;;;;;;;71.93;50.28;;;20.00;63.60;;;;;;4972583;28;88930;-59
2022/09/17 05:03:50;;;;;;;70.88;50.05;;;20.00;63.60;;;;;;4973845;28;92471;-58
2022/09/17 05:06:16;;;;;;;70.25;49.97;;;20.00;63.60;;;;;;4970159;28;89914;-58
2022/09/17 05:08:42;;;;;;;70.55;50.22;;;20.00;63.60;;;;;;4973859;28;90420;-59
2022/09/17 05:11:07;;;;;;;70.85;50.15;;;20.00;63.40;;;;;;4972865;28;92198;-60
2022/09/17 05:13:33;;;;;;;71.35;49.95;;;20.00;63.60;;;;;;4972150;28;90270;-58
2022/09/17 05:15:59;;;;;;;68.60;49.75;;;20.00;63.60;;;;;;4968434;28;90559;-60
2022/09/17 05:18:25;;;;;;;72.57;50.55;;;20.00;63.30;;;;;;4971718;28;90093;-58
2022/09/17 05:20:51;;;;;;;72.88;50.10;;;20.00;63.40;;;;;;4967701;28;89828;-58
2022/09/17 05:23:17;;;;;;;69.50;49.60;;;20.00;63.40;;;;;;4958446;28;91246;-58
2022/09/17 05:25:42;;;;;;;70.45;49.78;;;20.00;63.10;;;;;;4964340;28;89540;-60
2022/09/17 05:28:08;;;;;;;69.18;50.13;;;20.10;63.10;;;;;;4968588;28;89986;-58
2022/09/17 05:30:34;;;;;;;70.70;50.08;;;20.10;62.80;;;;;;4969481;28;91505;-58
2022/09/17 05:33:02;;;;;;;71.40;50.25;;;20.10;62.60;;;;;;4962828;28;92390;-58
2022/09/17 05:35:28;;;;;;;70.35;50.33;;;20.20;63.00;;;;;;4959309;28;91891;-59
2022/09/17 05:37:59;;;;;;;68.90;49.65;;;20.10;62.90;;;;;;4961398;28;95568;-58
2022/09/17 05:40:25;;;;;;;70.68;49.88;;;20.00;62.80;;;;;;4966747;28;89813;-59
2022/09/17 05:42:51;;;;;;;73.72;49.85;;;20.00;63.30;;;;;;4969464;28;90076;-58
2022/09/17 05:45:17;;;;;;;70.20;50.42;;;20.00;63.10;;;;;;4968019;28;91280;-58
2022/09/17 05:47:42;;;;;;;69.72;50.28;;;20.00;63.30;;;;;;4963658;28;90520;-60
2022/09/17 05:50:08;;;;;;;73.32;50.40;;;20.00;63.50;;;;;;4964987;28;90006;-58
2022/09/17 05:52:34;;;;;;;69.63;50.08;;;20.00;63.30;;;;;;4968737;28;90506;-58
2022/09/17 05:55:00;;;;;;;69.88;49.95;;;20.10;63.00;;;;;;4964327;28;90026;-58
2022/09/17 05:57:29;;;;;;;70.75;49.92;;;20.10;63.20;;;;;;4966728;28;94374;-58
2022/09/17 05:59:54;;;;;;;72.40;50.08;;;20.00;63.30;;;;;;4963929;28;91255;-59
2022/09/17 06:02:20;;;;;;;70.68;50.10;;;20.00;63.30;;;;;;4971010;28;92208;-58
2022/09/17 06:04:46;;;;;;;69.53;49.60;;;20.10;63.10;;;;;;4973836;28;89730;-58
2022/09/17 06:07:12;;;;;;;69.82;49.92;;;20.00;63.30;;;;;;4966568;28;90364;-58
2022/09/17 06:09:37;;;;;;;70.10;50.45;;;20.00;63.30;;;;;;4968834;28;92296;-58
2022/09/17 06:12:04;;;;;;;71.47;50.58;;;20.00;63.40;;;;;;4963991;28;89915;-57
2022/09/17 06:14:30;;;;;;;70.20;49.90;;;20.00;63.40;;;;;;4970473;28;90428;-59
2022/09/17 06:16:55;;;;;;;68.88;49.95;;;20.00;63.40;;;;;;4961135;28;89891;-58
2022/09/17 06:19:21;;;;;;;69.78;49.95;;;20.00;63.60;;;;;;4961566;28;90096;-58
2022/09/17 06:21:49;;;;;;;72.43;50.55;;;20.00;63.50;;;;;;4970380;28;91721;-59
2022/09/17 06:24:15;;;;;;;73.15;50.13;;;20.00;63.30;;;;;;4966515;28;90380;-59
2022/09/17 06:26:40;;;;;;;69.13;50.05;;;20.00;63.50;;;;;;4964111;28;90159;-57
2022/09/17 06:29:06;;;;;;;70.57;49.92;;;20.00;63.30;;;;;;4972361;28;90066;-59
2022/09/17 06:31:32;;;;;;;71.88;50.05;;;20.00;63.40;;;;;;4969962;28;90241;-58
2022/09/17 06:33:58;;;;;;;69.82;49.95;;;20.00;63.50;;;;;;4958545;28;90669;-58
2022/09/17 06:36:23;;;;;;;68.75;50.10;;;20.00;63.40;;;;;;4966353;28;90621;-58
2022/09/17 06:38:49;;;;;;;68.80;49.67;;;20.00;63.40;;;;;;4972305;28;89648;-58
2022/09/17 06:41:15;;;;;;;69.13;50.08;;;20.00;63.40;;;;;;4964350;28;90729;-59
2022/09/17 06:43:42;;;;;;;71.25;50.30;;;20.10;63.00;;;;;;4967678;28;89864;-59
2022/09/17 06:46:09;;;;;;;71.40;50.17;;;20.20;62.50;;;;;;4967160;28;91974;-58
2022/09/17 06:48:35;;;;;;;70.05;50.22;;;20.20;62.60;;;;;;4962750;28;93077;-58
2022/09/17 06:51:03;;;;;;;71.70;50.15;;;20.20;62.70;;;;;;4967527;28;90535;-59
2022/09/17 06:53:30;;;;;;;72.57;50.25;;;20.10;62.70;;;;;;4970487;28;97184;-58
2022/09/17 06:55:57;;;;;;;70.30;50.13;;;20.20;62.50;;;;;;4965538;28;90006;-59
2022/09/17 06:58:23;;;;;;;70.22;49.83;;;20.10;62.50;;;;;;4972361;28;91817;-59
2022/09/17 07:00:49;;;;;;;71.18;49.97;;;20.10;62.70;;;;;;4968079;28;91197;-58
2022/09/17 07:03:15;;;;;;;70.32;50.13;;;20.10;62.80;;;;;;4956616;28;97236;-59
2022/09/17 07:05:43;;;;;;;69.90;50.15;;;20.10;62.90;;;;;;4964513;28;90306;-59
2022/09/17 07:08:09;;;;;;;70.45;50.00;;;20.10;63.10;;;;;;4965254;28;91228;-58
2022/09/17 07:10:36;;;;;;;70.53;50.05;;;20.10;62.90;;;;;;4961822;28;91285;-59
2022/09/17 07:13:03;;;;;;;72.38;50.28;;;20.20;63.10;;;;;;4966467;28;90679;-59
2022/09/17 07:15:29;;;;;;;70.90;50.13;;;20.20;62.90;;;;;;4967826;28;94281;-59
2022/09/17 07:17:54;;;;;;;70.95;49.97;;;20.20;62.80;;;;;;4963943;28;97319;-59
2022/09/17 07:20:20;;;;;;;69.93;50.08;;;20.20;62.90;;;;;;4966944;28;90696;-58
2022/09/17 07:22:55;;;;;;;71.78;50.33;;;20.20;62.90;;;;;;4965441;28;92661;-59
2022/09/17 07:25:20;;;;;;;70.20;50.42;;;20.20;62.80;;;;;;4969274;28;90471;-59
2022/09/17 07:27:46;;;;;;;69.25;49.92;;;20.20;62.80;;;;;;4960379;28;90272;-59
2022/09/17 07:30:12;;;;;;;70.55;50.15;;;20.20;62.80;;;;;;4964657;28;90131;-58
2022/09/17 07:32:37;;;;;;;72.10;50.08;;;20.30;62.60;;;;;;4966498;28;89887;-58
2022/09/17 07:35:03;;;;;;;71.47;50.28;;;20.30;62.50;;;;;;4958665;28;91455;-59
2022/09/17 07:37:29;;;;;;;70.30;49.85;;;20.30;62.60;;;;;;4965929;28;94658;-59
2022/09/17 07:39:55;;;;;;;70.78;50.20;;;20.20;62.60;;;;;;4963719;28;90278;-60
2022/09/17 07:42:22;;;;;;;70.47;50.10;;;20.20;62.60;;;;;;4961563;28;90053;-58
2022/09/17 07:44:47;;;;;;;69.32;49.85;;;20.30;62.70;;;;;;4961415;28;89889;-60
2022/09/17 07:47:13;;;;;;;70.75;50.67;;;20.30;62.50;;;;;;4960992;28;90170;-58
2022/09/17 07:49:39;;;;;;;70.78;50.05;;;20.30;62.50;;;;;;4961696;28;92259;-58
2022/09/17 07:52:05;;;;;;;70.15;50.03;;;20.20;62.40;;;;;;4969799;28;90014;-59
2022/09/17 07:54:35;;;;;;;70.85;50.15;;;20.30;62.40;;;;;;4964700;28;89937;-59
2022/09/17 07:57:01;;;;;;;71.15;50.00;;;20.30;62.40;;;;;;4964263;28;90813;-59
2022/09/17 07:59:26;;;;;;;71.65;50.80;;;20.30;62.00;;;;;;4960772;28;92165;-58
2022/09/17 08:01:52;;;;;;;70.60;50.20;;;20.40;62.00;;;;;;4966269;28;91340;-59
2022/09/17 08:04:18;;;;;;;72.75;50.13;;;20.40;62.00;;;;;;4961810;28;91476;-58
2022/09/17 08:06:47;;;;;;;71.97;50.25;;;20.40;61.90;;;;;;4961223;28;90341;-58
2022/09/17 08:09:14;;;;;;;70.50;50.42;;;20.40;61.90;;;;;;4963448;28;91179;-59
2022/09/17 08:11:40;;;;;;;71.78;50.33;;;20.40;61.80;;;;;;4967309;28;90791;-59
2022/09/17 08:14:09;;;;;;;70.55;49.95;;;20.40;62.00;;;;;;4969550;28;94892;-59
2022/09/17 08:16:34;;;;;;;71.80;50.35;;;20.40;61.70;;;;;;4968239;28;89293;-59
2022/09/17 08:19:00;;;;;;;69.47;50.28;;;20.40;61.60;;;;;;4961890;28;90597;-60
2022/09/17 08:21:26;;;;;;;70.20;50.05;;;20.40;61.50;;;;;;4963309;28;91203;-59
2022/09/17 08:23:53;;;;;;;72.25;50.55;;;20.50;62.30;;;;;;4959578;28;92858;-50
2022/09/17 08:26:22;;;;;;;71.72;51.03;;;20.60;61.90;;;;;;4959519;28;90146;-51
2022/09/17 08:28:53;;;;;;;73.32;50.38;;;20.70;62.10;;;;;;4965106;28;90651;-50
2022/09/17 08:31:24;;;;;;;71.97;50.15;;;20.70;62.00;;;;;;4964415;28;90494;-54
2022/09/17 08:33:49;;;;;;;71.38;50.13;;;20.60;62.00;;;;;;4956337;28;90611;-51
2022/09/17 08:36:17;;;;;;;73.38;50.55;;;20.70;61.60;;;;;;4951682;28;91574;-49
2022/09/17 08:38:43;;;;;;;70.43;50.65;;;20.80;61.40;;;;;;4959059;28;90374;-51
2022/09/17 08:41:09;;;;;;;72.88;50.55;;;20.70;61.30;;;;;;4953631;28;93386;-55
2022/09/17 08:44:05;;;;;;;72.00;50.78;;;20.70;61.30;;;;;;4965348;28;89969;-56
2022/09/17 08:46:37;;;;;;;71.68;50.25;;;20.70;61.10;;;;;;4953546;28;91190;-49
2022/09/17 08:49:33;;;;;;;72.43;50.47;;;20.80;61.00;;;;;;4963799;28;91867;-56
2022/09/17 08:52:20;;;;;;;69.63;50.28;;;20.80;60.70;;;;;;4965111;28;90900;-49
2022/09/17 08:55:06;;;;;;;71.30;50.65;;;20.80;60.70;;;;;;4952275;28;91453;-49
2022/09/17 08:58:16;;;;;;;71.25;50.75;;;20.90;60.50;;;;;;4961372;28;90485;-52
2022/09/17 09:01:10;;;;;;;70.07;50.03;;;20.80;60.20;;;;;;4919218;28;91121;-54
2022/09/17 09:03:48;;;;;;;73.70;50.60;;;20.90;59.90;;;;;;4955565;28;89844;-53
2022/09/17 09:06:15;;;;;;;71.43;50.42;;;20.90;59.80;;;;;;4965814;28;96819;-51
2022/09/17 09:09:03;;;;;;;76.53;51.17;;;20.80;59.80;;;;;;4966471;28;93275;-53
2022/09/17 09:11:30;;;;;;;71.72;50.58;;;20.70;59.70;;;;;;4967799;28;90693;-52
2022/09/17 09:14:08;;;;;;;71.65;50.63;;;20.70;59.60;;;;;;4958204;28;90216;-50
2022/09/17 09:16:38;;;;;;;72.88;50.78;;;20.70;59.50;;;;;;4961566;28;90880;-57
2022/09/17 09:19:39;;;;;;;72.68;50.75;;;20.70;59.70;;;;;;4972568;28;90043;-55
2022/09/17 09:22:17;;;;;;;73.68;50.47;;;20.70;59.60;;;;;;4969849;28;90913;-52
2022/09/17 09:25:04;;;;;;;72.72;50.58;;;20.70;59.40;;;;;;4959213;28;89927;-53
2022/09/17 09:27:43;;;;;;;72.88;50.60;;;20.60;59.50;;;;;;4966935;28;90433;-53
2022/09/17 09:30:09;;;;;;;73.43;50.85;;;20.70;59.60;;;;;;4974891;28;89801;-52
2022/09/17 09:32:56;;;;;;;72.10;50.60;;;20.70;59.60;;;;;;4964602;28;90334;-52
2022/09/17 09:35:28;;;;;;;73.90;50.65;;;20.80;59.50;;;;;;4962071;28;90797;-52
2022/09/17 09:38:14;;;;;;;70.88;50.47;;;20.80;59.30;;;;;;4967758;28;91494;-53
2022/09/17 09:40:47;;;;;;;71.60;50.40;;;20.80;59.00;;;;;;4954787;28;90054;-52
2022/09/17 09:43:21;;;;;;;72.28;50.47;;;20.80;59.20;;;;;;4968014;28;92265;-51
2022/09/17 09:46:03;;;;;;;71.80;50.80;;;20.80;58.90;;;;;;4963995;28;92751;-52
2022/09/17 09:48:45;;;;;;;71.20;50.53;;;20.70;59.30;;;;;;4967167;28;91725;-58
2022/09/17 09:51:38;;;;;;;73.43;50.47;;;20.70;59.10;;;;;;4960948;28;91051;-54
2022/09/17 09:54:21;;;;;;;71.55;50.63;;;20.70;59.20;;;;;;4961734;28;90506;-58
2022/09/17 09:57:16;;;;;;;72.45;50.33;;;20.70;59.50;;;;;;4974790;28;91138;-57
2022/09/17 09:59:42;;;;;;;74.68;50.75;;;20.60;59.70;;;;;;4949948;28;91090;-59
2022/09/17 10:02:08;;;;;;;70.90;50.42;;;20.50;59.90;;;;;;4969347;28;89626;-57
2022/09/17 10:04:33;;;;;;;74.00;51.10;;;20.60;60.00;;;;;;4957096;28;91769;-58
2022/09/17 10:07:08;;;;;;;72.85;50.55;;;20.60;59.90;;;;;;4963540;28;90313;-59
2022/09/17 10:09:36;;;;;;;75.05;50.63;;;20.80;60.40;;;;;;4965902;28;93467;-58
2022/09/17 10:12:16;;;;;;;75.85;50.58;;;20.80;60.40;;;;;;4971388;28;90378;-57
2022/09/17 10:14:43;;;;;;;75.50;50.88;;;20.90;60.30;;;;;;4964651;28;90327;-58
2022/09/17 10:17:13;;;;;;;72.43;50.97;;;21.00;59.70;;;;;;4963067;28;90496;-58
2022/09/17 10:19:40;;;;;;;74.53;50.83;;;21.00;59.80;;;;;;4959694;28;93680;-59
2022/09/17 10:22:26;;;;;;;75.00;50.55;;;21.00;59.80;;;;;;4961135;28;93369;-59
2022/09/17 10:24:54;;;;;;;73.65;50.72;;;21.00;59.80;;;;;;4957416;28;90087;-58
2022/09/17 10:27:22;;;;;;;72.10;50.63;;;21.00;59.80;;;;;;4964121;28;94618;-58
2022/09/17 10:29:55;;;;;;;73.95;50.90;;;21.00;60.00;;;;;;4963823;28;91668;-58
2022/09/17 10:32:21;;;;;;;78.13;50.90;;;20.90;60.00;;;;;;4965410;28;90907;-57
2022/09/17 10:35:06;;;;;;;72.32;50.78;;;21.00;59.90;;;;;;4964004;28;91774;-58
2022/09/17 10:37:45;;;;;;;72.68;50.92;;;20.90;60.30;;;;;;4962618;28;90540;-58
2022/09/17 10:40:17;;;;;;;75.30;50.50;;;20.90;60.40;;;;;;4962874;28;93554;-58
2022/09/17 10:42:43;;;;;;;73.28;50.88;;;21.00;59.90;;;;;;4969038;28;91229;-59
2022/09/17 10:45:30;;;;;;;74.97;50.75;;;21.10;59.70;;;;;;4961707;28;91735;-59
2022/09/17 10:47:58;;;;;;;74.22;50.90;;;21.10;59.80;;;;;;4948692;28;93654;-58
2022/09/17 10:50:28;;;;;;;74.03;50.95;;;21.10;59.60;;;;;;4959988;28;90402;-59
2022/09/17 10:53:00;;;;;;;75.07;50.67;;;21.10;59.40;;;;;;4957405;28;89101;-59
2022/09/17 10:55:35;;;;;;;74.85;50.90;;;21.10;59.40;;;;;;4959464;28;90955;-56
2022/09/17 10:58:06;;;;;;;76.75;51.03;;;21.10;59.40;;;;;;4948122;28;91569;-58
2022/09/17 11:01:09;;;;;;;73.35;50.95;;;21.00;59.40;;;;;;4966629;28;92382;-57
2022/09/17 11:03:47;;;;;;;73.20;50.58;;;21.00;59.10;;;;;;4963147;28;91877;-59
2022/09/17 11:06:31;;;;;;;74.25;51.05;;;21.00;59.10;;;;;;4949244;28;91252;-58
2022/09/17 11:09:01;;;;;;;71.55;50.90;;;21.10;59.10;;;;;;4946033;28;94060;-58
2022/09/17 11:11:59;;;;;;;72.72;51.25;;;21.00;59.00;;;;;;4945548;28;90723;-59
2022/09/17 11:14:49;;;;;;;72.47;50.72;;;21.00;58.70;;;;;;4958779;28;90079;-58
2022/09/17 11:17:36;;;;;;;72.15;50.75;;;21.10;58.50;;;;;;4956801;28;91107;-59
2022/09/17 11:20:35;;;;;;;71.13;50.83;;;21.10;58.40;;;;;;4957788;28;92994;-57
2022/09/17 11:23:27;;;;;;;74.57;50.70;;;21.10;58.20;;;;;;4966318;28;94235;-59
2022/09/17 11:26:40;;;;;;;71.90;50.67;;;21.10;58.30;;;;;;4899713;28;90603;-56
2022/09/17 11:29:30;;;;;;;71.35;51.03;;;21.10;57.90;;;;;;4937251;28;91291;-59
2022/09/17 11:32:04;;;;;;;70.60;50.83;;;21.10;57.80;;;;;;4963697;28;90616;-59
2022/09/17 11:35:02;;;;;;;73.60;50.92;;;21.20;57.70;;;;;;4958916;28;90652;-57
2022/09/17 11:37:48;;;;;;;71.35;51.03;;;21.20;57.50;;;;;;4972774;28;91767;-57
2022/09/17 11:40:36;;;;;;;72.78;50.90;;;21.20;57.40;;;;;;4968306;28;90172;-58
2022/09/17 11:43:32;;;;;;;75.22;51.42;;;21.20;57.00;;;;;;4969542;28;90327;-59
2022/09/17 11:46:42;;;;;;;75.07;51.78;;;21.30;56.70;;;;;;4963910;28;90461;-58
2022/09/17 11:49:13;;;;;;;74.65;51.67;;;21.30;56.70;;;;;;4914731;28;89401;-56
2022/09/17 11:51:42;;;;;;;;;;;21.30;56.60;;;;;;4970298;28;91432;-56
2022/09/17 11:54:42;;;;;;;77.93;51.55;;;21.30;56.50;;;;;;4967526;28;90836;-57
2022/09/17 11:57:21;;;;;;;74.45;51.13;;;21.30;56.60;;;;;;4949195;28;90956;-57
2022/09/17 12:00:06;;;;;;;71.57;51.05;;;21.30;56.60;;;;;;4969348;28;90522;-58
2022/09/17 12:02:51;;;;;;;73.78;50.95;;;21.20;56.30;;;;;;4961482;28;92648;-57
2022/09/17 12:05:38;;;;;;;73.13;51.17;;;21.20;56.30;;;;;;4962595;28;90143;-55
2022/09/17 12:08:09;;;;;;;76.30;51.90;;;21.10;56.70;;;;;;4971632;28;89750;-57
2022/09/17 12:11:29;;;;;;;73.07;51.42;;;21.10;58.30;;;;;;4967532;28;90659;-55
2022/09/17 12:14:01;;;;;;;72.70;51.10;;;21.10;59.10;;;;;;4927523;28;90203;-56
2022/09/17 12:16:41;;;;;;;74.30;51.08;;;21.00;60.70;;;;;;4924142;28;91051;-56
2022/09/17 12:19:32;;;;;;;72.00;50.83;;;21.10;60.00;;;;;;4947333;28;89917;-59
2022/09/17 12:22:19;;;;;;;73.73;51.03;;;21.00;59.70;;;;;;4964775;28;91778;-60
2022/09/17 12:24:48;;;;;;;73.85;51.17;;;21.00;59.40;;;;;;4960533;28;92397;-55
2022/09/17 12:27:29;;;;;;;74.93;51.25;;;21.00;59.20;;;;;;4967541;28;91233;-59
2022/09/17 12:29:57;;;;;;;71.68;51.17;;;21.00;58.90;;;;;;4960297;28;90025;-66
2022/09/17 12:32:49;;;;;;;71.70;50.78;;;21.00;58.70;;;;;;4971804;28;89711;-64
2022/09/17 12:35:38;;;;;;;72.95;51.08;;;21.00;58.70;;;;;;4971719;28;90100;-64
2022/09/17 12:38:22;;;;;;;73.97;51.33;;;21.00;58.20;;;;;;4962110;28;90567;-66
2022/09/17 12:41:01;;;;;;;72.50;50.63;;;21.00;58.20;;;;;;4958100;28;91770;-67
2022/09/17 12:43:39;;;;;;;71.20;50.65;;;21.10;58.00;;;;;;4969706;28;89269;-68
2022/09/17 12:46:26;;;;;;;72.55;50.75;;;21.10;57.80;;;;;;4963801;28;90807;-62
2022/09/17 12:49:00;;;;;;;71.75;50.67;;;21.00;57.70;;;;;;4963989;28;91908;-64
2022/09/17 12:51:26;;;;;;;70.60;50.50;;;21.00;57.60;;;;;;4957633;28;92269;-66
2022/09/17 12:54:01;;;;;;;70.25;50.55;;;21.00;57.60;;;;;;4955749;28;93956;-65
2022/09/17 12:56:45;;;;;;;71.75;50.88;;;21.00;57.60;;;;;;4957963;28;93709;-65
2022/09/17 12:59:19;;;;;;;74.10;50.88;;;21.00;57.50;;;;;;4952201;28;90965;-62